sensor_id;sensor_type;location;lat;lon;timestamp;P1;durP1;ratioP1;P2;durP2;ratioP2
47025;SDS011;32783;51.756;-2.556;2022-08-01T00:02:18;1.15;;;0.40;;
47025;SDS011;32783;51.756;-2.556;2022-08-01T00:04:43;0.50;;;0.40;;
47025;SDS011;32783;51.756;-2.556;2022-08-01T00:07:09;0.30;;;0.25;;
47025;SDS011;32783;51.756;-2.556;2022-08-01T00:09:34;0.95;;;0.30;;
47025;SDS011;32783;51.756;-2.556;2022-08-01T00:11:59;1.15;;;0.75;;
47025;SDS011;32783;51.756;-2.556;2022-08-01T00:14:25;0.60;;;0.47;;
47025;SDS011;32783;51.756;-2.556;2022-08-01T00:16:51;0.38;;;0.30;;
47025;SDS011;32783;51.756;-2.556;2022-08-01T00:19:16;0.30;;;0.20;;
47025;SDS011;32783;51.756;-2.556;2022-08-01T00:21:42;0.93;;;0.40;;
47025;SDS011;32783;51.756;-2.556;2022-08-01T00:24:07;0.35;;;0.22;;
47025;SDS011;32783;51.756;-2.556;2022-08-01T00:26:33;0.70;;;0.70;;
47025;SDS011;32783;51.756;-2.556;2022-08-01T00:28:58;0.52;;;0.30;;
47025;SDS011;32783;51.756;-2.556;2022-08-01T00:31:24;0.82;;;0.40;;
47025;SDS011;32783;51.756;-2.556;2022-08-01T00:33:49;0.35;;;0.30;;
47025;SDS011;32783;51.756;-2.556;2022-08-01T00:36:14;0.25;;;0.22;;
47025;SDS011;32783;51.756;-2.556;2022-08-01T00:38:40;1.60;;;0.40;;
47025;SDS011;32783;51.756;-2.556;2022-08-01T00:41:05;0.80;;;0.50;;
47025;SDS011;32783;51.756;-2.556;2022-08-01T00:43:31;0.50;;;0.40;;
47025;SDS011;32783;51.756;-2.556;2022-08-01T00:45:56;0.32;;;0.30;;
47025;SDS011;32783;51.756;-2.556;2022-08-01T00:48:22;0.40;;;0.20;;
47025;SDS011;32783;51.756;-2.556;2022-08-01T00:50:47;0.52;;;0.50;;
47025;SDS011;32783;51.756;-2.556;2022-08-01T00:53:12;0.25;;;0.20;;
47025;SDS011;32783;51.756;-2.556;2022-08-01T00:55:38;0.40;;;0.30;;
47025;SDS011;32783;51.756;-2.556;2022-08-01T00:58:03;0.38;;;0.25;;
47025;SDS011;32783;51.756;-2.556;2022-08-01T01:00:29;1.05;;;0.40;;
47025;SDS011;32783;51.756;-2.556;2022-08-01T01:02:54;0.50;;;0.32;;
47025;SDS011;32783;51.756;-2.556;2022-08-01T01:05:20;1.25;;;0.20;;
47025;SDS011;32783;51.756;-2.556;2022-08-01T01:10:36;0.35;;;0.30;;
47025;SDS011;32783;51.756;-2.556;2022-08-01T01:16:14;0.30;;;0.30;;
47025;SDS011;32783;51.756;-2.556;2022-08-01T01:18:47;0.85;;;0.50;;
47025;SDS011;32783;51.756;-2.556;2022-08-01T01:29:31;0.55;;;0.28;;
47025;SDS011;32783;51.756;-2.556;2022-08-01T01:32:13;1.13;;;0.55;;
47025;SDS011;32783;51.756;-2.556;2022-08-01T01:34:42;0.30;;;0.30;;
47025;SDS011;32783;51.756;-2.556;2022-08-01T01:37:09;0.65;;;0.30;;
47025;SDS011;32783;51.756;-2.556;2022-08-01T01:39:38;0.35;;;0.20;;
47025;SDS011;32783;51.756;-2.556;2022-08-01T01:42:06;0.40;;;0.40;;
47025;SDS011;32783;51.756;-2.556;2022-08-01T01:44:31;0.30;;;0.30;;
47025;SDS011;32783;51.756;-2.556;2022-08-01T01:46:57;0.47;;;0.45;;
47025;SDS011;32783;51.756;-2.556;2022-08-01T01:49:25;0.55;;;0.38;;
47025;SDS011;32783;51.756;-2.556;2022-08-01T01:51:53;0.30;;;0.30;;
47025;SDS011;32783;51.756;-2.556;2022-08-01T01:54:19;0.85;;;0.40;;
47025;SDS011;32783;51.756;-2.556;2022-08-01T01:56:45;0.50;;;0.22;;
47025;SDS011;32783;51.756;-2.556;2022-08-01T01:59:20;0.52;;;0.30;;
47025;SDS011;32783;51.756;-2.556;2022-08-01T02:01:50;0.20;;;0.10;;
47025;SDS011;32783;51.756;-2.556;2022-08-01T02:04:16;0.50;;;0.30;;
47025;SDS011;32783;51.756;-2.556;2022-08-01T02:06:43;0.38;;;0.17;;
47025;SDS011;32783;51.756;-2.556;2022-08-01T02:09:11;0.90;;;0.40;;
47025;SDS011;32783;51.756;-2.556;2022-08-01T02:11:40;0.20;;;0.20;;
47025;SDS011;32783;51.756;-2.556;2022-08-01T02:14:06;0.50;;;0.35;;
47025;SDS011;32783;51.756;-2.556;2022-08-01T02:16:36;0.30;;;0.30;;
47025;SDS011;32783;51.756;-2.556;2022-08-01T02:19:04;0.30;;;0.20;;
47025;SDS011;32783;51.756;-2.556;2022-08-01T02:21:31;1.00;;;0.40;;
47025;SDS011;32783;51.756;-2.556;2022-08-01T02:27:07;0.32;;;0.30;;
47025;SDS011;32783;51.756;-2.556;2022-08-01T02:30:20;0.20;;;0.10;;
47025;SDS011;32783;51.756;-2.556;2022-08-01T02:35:32;0.50;;;0.30;;
47025;SDS011;32783;51.756;-2.556;2022-08-01T02:38:00;0.28;;;0.25;;
47025;SDS011;32783;51.756;-2.556;2022-08-01T02:40:26;0.40;;;0.22;;
47025;SDS011;32783;51.756;-2.556;2022-08-01T02:42:54;0.22;;;0.15;;
47025;SDS011;32783;51.756;-2.556;2022-08-01T02:45:21;0.30;;;0.20;;
47025;SDS011;32783;51.756;-2.556;2022-08-01T02:47:48;0.22;;;0.22;;
47025;SDS011;32783;51.756;-2.556;2022-08-01T02:50:15;0.30;;;0.25;;
47025;SDS011;32783;51.756;-2.556;2022-08-01T02:52:41;0.28;;;0.20;;
47025;SDS011;32783;51.756;-2.556;2022-08-01T02:55:09;0.77;;;0.30;;
47025;SDS011;32783;51.756;-2.556;2022-08-01T02:57:36;0.28;;;0.25;;
47025;SDS011;32783;51.756;-2.556;2022-08-01T03:00:03;0.73;;;0.20;;
47025;SDS011;32783;51.756;-2.556;2022-08-01T03:02:30;1.65;;;0.30;;
47025;SDS011;32783;51.756;-2.556;2022-08-01T03:04:56;0.20;;;0.20;;
47025;SDS011;32783;51.756;-2.556;2022-08-01T03:07:22;0.30;;;0.28;;
47025;SDS011;32783;51.756;-2.556;2022-08-01T03:09:49;0.45;;;0.20;;
47025;SDS011;32783;51.756;-2.556;2022-08-01T03:12:16;0.50;;;0.20;;
47025;SDS011;32783;51.756;-2.556;2022-08-01T03:14:44;0.20;;;0.20;;
47025;SDS011;32783;51.756;-2.556;2022-08-01T03:17:10;0.20;;;0.20;;
47025;SDS011;32783;51.756;-2.556;2022-08-01T03:19:36;0.60;;;0.30;;
47025;SDS011;32783;51.756;-2.556;2022-08-01T03:22:02;0.82;;;0.30;;
47025;SDS011;32783;51.756;-2.556;2022-08-01T03:26:57;0.17;;;0.15;;
47025;SDS011;32783;51.756;-2.556;2022-08-01T03:29:24;0.98;;;0.30;;
47025;SDS011;32783;51.756;-2.556;2022-08-01T03:31:51;0.28;;;0.20;;
47025;SDS011;32783;51.756;-2.556;2022-08-01T03:34:16;0.40;;;0.28;;
47025;SDS011;32783;51.756;-2.556;2022-08-01T03:36:45;0.20;;;0.20;;
47025;SDS011;32783;51.756;-2.556;2022-08-01T03:39:12;0.30;;;0.30;;
47025;SDS011;32783;51.756;-2.556;2022-08-01T03:41:39;0.25;;;0.25;;
47025;SDS011;32783;51.756;-2.556;2022-08-01T03:44:07;0.55;;;0.20;;
47025;SDS011;32783;51.756;-2.556;2022-08-01T03:46:42;0.17;;;0.15;;
47025;SDS011;32783;51.756;-2.556;2022-08-01T03:49:11;0.30;;;0.20;;
47025;SDS011;32783;51.756;-2.556;2022-08-01T03:51:40;0.57;;;0.32;;
47025;SDS011;32783;51.756;-2.556;2022-08-01T03:54:06;0.13;;;0.13;;
47025;SDS011;32783;51.756;-2.556;2022-08-01T03:56:32;0.22;;;0.20;;
47025;SDS011;32783;51.756;-2.556;2022-08-01T03:58:59;0.40;;;0.30;;
47025;SDS011;32783;51.756;-2.556;2022-08-01T04:01:24;0.20;;;0.20;;
47025;SDS011;32783;51.756;-2.556;2022-08-01T04:03:51;0.85;;;0.20;;
47025;SDS011;32783;51.756;-2.556;2022-08-01T04:06:16;0.28;;;0.20;;
47025;SDS011;32783;51.756;-2.556;2022-08-01T04:08:42;0.35;;;0.17;;
47025;SDS011;32783;51.756;-2.556;2022-08-01T04:11:08;0.30;;;0.30;;
47025;SDS011;32783;51.756;-2.556;2022-08-01T04:13:34;0.30;;;0.30;;
47025;SDS011;32783;51.756;-2.556;2022-08-01T04:15:59;0.30;;;0.30;;
47025;SDS011;32783;51.756;-2.556;2022-08-01T04:18:25;0.13;;;0.10;;
47025;SDS011;32783;51.756;-2.556;2022-08-01T04:20:51;0.13;;;0.13;;
47025;SDS011;32783;51.756;-2.556;2022-08-01T04:23:17;0.38;;;0.30;;
47025;SDS011;32783;51.756;-2.556;2022-08-01T04:25:46;0.52;;;0.22;;
47025;SDS011;32783;51.756;-2.556;2022-08-01T04:28:13;0.82;;;0.22;;
47025;SDS011;32783;51.756;-2.556;2022-08-01T04:30:42;0.28;;;0.28;;
47025;SDS011;32783;51.756;-2.556;2022-08-01T04:33:10;0.30;;;0.30;;
47025;SDS011;32783;51.756;-2.556;2022-08-01T04:35:37;0.22;;;0.20;;
47025;SDS011;32783;51.756;-2.556;2022-08-01T04:38:03;0.22;;;0.15;;
47025;SDS011;32783;51.756;-2.556;2022-08-01T04:40:29;0.30;;;0.30;;
47025;SDS011;32783;51.756;-2.556;2022-08-01T04:42:55;0.35;;;0.20;;
47025;SDS011;32783;51.756;-2.556;2022-08-01T04:45:21;0.30;;;0.20;;
47025;SDS011;32783;51.756;-2.556;2022-08-01T04:47:46;0.73;;;0.35;;
47025;SDS011;32783;51.756;-2.556;2022-08-01T04:50:12;0.57;;;0.20;;
47025;SDS011;32783;51.756;-2.556;2022-08-01T04:52:38;0.45;;;0.25;;
47025;SDS011;32783;51.756;-2.556;2022-08-01T04:55:06;0.50;;;0.30;;
47025;SDS011;32783;51.756;-2.556;2022-08-01T04:57:34;0.35;;;0.20;;
47025;SDS011;32783;51.756;-2.556;2022-08-01T04:59:59;0.43;;;0.20;;
47025;SDS011;32783;51.756;-2.556;2022-08-01T05:02:27;0.35;;;0.28;;
47025;SDS011;32783;51.756;-2.556;2022-08-01T05:04:54;1.00;;;0.40;;
47025;SDS011;32783;51.756;-2.556;2022-08-01T05:07:22;0.28;;;0.20;;
47025;SDS011;32783;51.756;-2.556;2022-08-01T05:09:47;0.30;;;0.30;;
47025;SDS011;32783;51.756;-2.556;2022-08-01T05:12:13;0.30;;;0.30;;
47025;SDS011;32783;51.756;-2.556;2022-08-01T05:14:39;0.70;;;0.30;;
47025;SDS011;32783;51.756;-2.556;2022-08-01T05:17:06;0.10;;;0.10;;
47025;SDS011;32783;51.756;-2.556;2022-08-01T05:19:36;0.30;;;0.10;;
47025;SDS011;32783;51.756;-2.556;2022-08-01T05:22:03;0.20;;;0.20;;
47025;SDS011;32783;51.756;-2.556;2022-08-01T05:24:33;0.30;;;0.28;;
47025;SDS011;32783;51.756;-2.556;2022-08-01T05:27:00;0.30;;;0.30;;
47025;SDS011;32783;51.756;-2.556;2022-08-01T05:29:26;0.50;;;0.38;;
47025;SDS011;32783;51.756;-2.556;2022-08-01T05:31:51;0.28;;;0.28;;
47025;SDS011;32783;51.756;-2.556;2022-08-01T05:34:18;0.45;;;0.32;;
47025;SDS011;32783;51.756;-2.556;2022-08-01T05:36:43;0.50;;;0.30;;
47025;SDS011;32783;51.756;-2.556;2022-08-01T05:39:09;0.22;;;0.20;;
47025;SDS011;32783;51.756;-2.556;2022-08-01T05:41:35;0.30;;;0.30;;
47025;SDS011;32783;51.756;-2.556;2022-08-01T05:44:01;0.30;;;0.22;;
47025;SDS011;32783;51.756;-2.556;2022-08-01T05:46:28;0.30;;;0.30;;
47025;SDS011;32783;51.756;-2.556;2022-08-01T05:48:55;0.20;;;0.20;;
47025;SDS011;32783;51.756;-2.556;2022-08-01T05:51:21;0.17;;;0.17;;
47025;SDS011;32783;51.756;-2.556;2022-08-01T05:53:47;0.20;;;0.20;;
47025;SDS011;32783;51.756;-2.556;2022-08-01T05:56:12;0.28;;;0.20;;
47025;SDS011;32783;51.756;-2.556;2022-08-01T05:58:37;0.40;;;0.30;;
47025;SDS011;32783;51.756;-2.556;2022-08-01T06:01:03;0.22;;;0.20;;
47025;SDS011;32783;51.756;-2.556;2022-08-01T06:03:28;0.22;;;0.22;;
47025;SDS011;32783;51.756;-2.556;2022-08-01T06:05:56;0.70;;;0.30;;
47025;SDS011;32783;51.756;-2.556;2022-08-01T06:08:22;0.88;;;0.30;;
47025;SDS011;32783;51.756;-2.556;2022-08-01T06:10:48;0.40;;;0.40;;
47025;SDS011;32783;51.756;-2.556;2022-08-01T06:13:13;0.52;;;0.30;;
47025;SDS011;32783;51.756;-2.556;2022-08-01T06:15:39;0.30;;;0.20;;
47025;SDS011;32783;51.756;-2.556;2022-08-01T06:18:04;0.82;;;0.38;;
47025;SDS011;32783;51.756;-2.556;2022-08-01T06:20:30;0.20;;;0.20;;
47025;SDS011;32783;51.756;-2.556;2022-08-01T06:22:55;0.35;;;0.30;;
47025;SDS011;32783;51.756;-2.556;2022-08-01T06:25:21;0.77;;;0.30;;
47025;SDS011;32783;51.756;-2.556;2022-08-01T06:27:47;0.43;;;0.20;;
47025;SDS011;32783;51.756;-2.556;2022-08-01T06:30:13;0.43;;;0.40;;
47025;SDS011;32783;51.756;-2.556;2022-08-01T06:32:38;0.20;;;0.20;;
47025;SDS011;32783;51.756;-2.556;2022-08-01T06:35:04;0.85;;;0.30;;
47025;SDS011;32783;51.756;-2.556;2022-08-01T06:37:30;1.10;;;0.40;;
47025;SDS011;32783;51.756;-2.556;2022-08-01T06:39:59;0.52;;;0.30;;
47025;SDS011;32783;51.756;-2.556;2022-08-01T06:42:28;0.47;;;0.35;;
47025;SDS011;32783;51.756;-2.556;2022-08-01T06:44:56;0.55;;;0.32;;
47025;SDS011;32783;51.756;-2.556;2022-08-01T06:47:22;1.17;;;0.55;;
47025;SDS011;32783;51.756;-2.556;2022-08-01T06:49:47;0.93;;;0.30;;
47025;SDS011;32783;51.756;-2.556;2022-08-01T06:52:13;0.20;;;0.20;;
47025;SDS011;32783;51.756;-2.556;2022-08-01T06:54:38;0.52;;;0.40;;
47025;SDS011;32783;51.756;-2.556;2022-08-01T06:57:07;0.95;;;0.30;;
47025;SDS011;32783;51.756;-2.556;2022-08-01T06:59:32;0.20;;;0.20;;
47025;SDS011;32783;51.756;-2.556;2022-08-01T07:01:58;0.40;;;0.28;;
47025;SDS011;32783;51.756;-2.556;2022-08-01T07:04:23;0.28;;;0.25;;
47025;SDS011;32783;51.756;-2.556;2022-08-01T07:06:48;1.05;;;0.38;;
47025;SDS011;32783;51.756;-2.556;2022-08-01T07:09:14;0.77;;;0.40;;
47025;SDS011;32783;51.756;-2.556;2022-08-01T07:11:39;1.58;;;0.20;;
47025;SDS011;32783;51.756;-2.556;2022-08-01T07:14:05;1.05;;;0.43;;
47025;SDS011;32783;51.756;-2.556;2022-08-01T07:16:31;1.15;;;0.30;;
47025;SDS011;32783;51.756;-2.556;2022-08-01T07:18:56;0.28;;;0.20;;
47025;SDS011;32783;51.756;-2.556;2022-08-01T07:21:22;0.50;;;0.30;;
47025;SDS011;32783;51.756;-2.556;2022-08-01T07:23:47;1.27;;;0.40;;
47025;SDS011;32783;51.756;-2.556;2022-08-01T07:26:13;1.35;;;0.40;;
47025;SDS011;32783;51.756;-2.556;2022-08-01T07:28:38;0.88;;;0.40;;
47025;SDS011;32783;51.756;-2.556;2022-08-01T07:31:04;0.98;;;0.50;;
47025;SDS011;32783;51.756;-2.556;2022-08-01T07:33:30;1.38;;;0.43;;
47025;SDS011;32783;51.756;-2.556;2022-08-01T07:35:55;0.85;;;0.38;;
47025;SDS011;32783;51.756;-2.556;2022-08-01T07:38:21;0.50;;;0.30;;
47025;SDS011;32783;51.756;-2.556;2022-08-01T07:40:46;1.00;;;0.40;;
47025;SDS011;32783;51.756;-2.556;2022-08-01T07:43:12;2.15;;;0.50;;
47025;SDS011;32783;51.756;-2.556;2022-08-01T07:45:37;0.88;;;0.30;;
47025;SDS011;32783;51.756;-2.556;2022-08-01T07:48:06;3.10;;;0.47;;
47025;SDS011;32783;51.756;-2.556;2022-08-01T07:50:31;0.38;;;0.28;;
47025;SDS011;32783;51.756;-2.556;2022-08-01T07:52:57;0.93;;;0.38;;
47025;SDS011;32783;51.756;-2.556;2022-08-01T07:55:23;2.47;;;0.60;;
47025;SDS011;32783;51.756;-2.556;2022-08-01T07:57:48;3.70;;;0.40;;
47025;SDS011;32783;51.756;-2.556;2022-08-01T08:00:14;1.52;;;0.50;;
47025;SDS011;32783;51.756;-2.556;2022-08-01T08:02:40;0.55;;;0.40;;
47025;SDS011;32783;51.756;-2.556;2022-08-01T08:05:06;1.25;;;0.45;;
47025;SDS011;32783;51.756;-2.556;2022-08-01T08:07:35;1.42;;;0.60;;
47025;SDS011;32783;51.756;-2.556;2022-08-01T08:10:00;1.10;;;0.30;;
47025;SDS011;32783;51.756;-2.556;2022-08-01T08:12:26;0.95;;;0.40;;
47025;SDS011;32783;51.756;-2.556;2022-08-01T08:14:52;0.95;;;0.40;;
47025;SDS011;32783;51.756;-2.556;2022-08-01T08:17:17;0.93;;;0.50;;
47025;SDS011;32783;51.756;-2.556;2022-08-01T08:19:43;0.90;;;0.60;;
47025;SDS011;32783;51.756;-2.556;2022-08-01T08:22:09;2.28;;;0.63;;
47025;SDS011;32783;51.756;-2.556;2022-08-01T08:24:35;3.00;;;0.60;;
47025;SDS011;32783;51.756;-2.556;2022-08-01T08:27:01;0.95;;;0.50;;
47025;SDS011;32783;51.756;-2.556;2022-08-01T08:29:28;1.45;;;0.43;;
47025;SDS011;32783;51.756;-2.556;2022-08-01T08:31:55;0.68;;;0.40;;
47025;SDS011;32783;51.756;-2.556;2022-08-01T08:34:21;0.43;;;0.38;;
47025;SDS011;32783;51.756;-2.556;2022-08-01T08:36:46;3.35;;;0.55;;
47025;SDS011;32783;51.756;-2.556;2022-08-01T08:39:12;5.40;;;0.88;;
47025;SDS011;32783;51.756;-2.556;2022-08-01T08:41:38;1.25;;;0.70;;
47025;SDS011;32783;51.756;-2.556;2022-08-01T08:44:03;2.28;;;0.50;;
47025;SDS011;32783;51.756;-2.556;2022-08-01T08:46:30;2.10;;;0.70;;
47025;SDS011;32783;51.756;-2.556;2022-08-01T08:48:57;1.95;;;0.43;;
47025;SDS011;32783;51.756;-2.556;2022-08-01T08:51:23;0.70;;;0.40;;
47025;SDS011;32783;51.756;-2.556;2022-08-01T08:53:52;2.10;;;0.43;;
47025;SDS011;32783;51.756;-2.556;2022-08-01T08:56:20;2.27;;;0.63;;
47025;SDS011;32783;51.756;-2.556;2022-08-01T08:58:45;1.35;;;0.60;;
47025;SDS011;32783;51.756;-2.556;2022-08-01T09:01:11;1.77;;;0.80;;
47025;SDS011;32783;51.756;-2.556;2022-08-01T09:03:37;2.70;;;0.77;;
47025;SDS011;32783;51.756;-2.556;2022-08-01T09:06:04;0.80;;;0.40;;
47025;SDS011;32783;51.756;-2.556;2022-08-01T09:08:29;2.70;;;0.65;;
47025;SDS011;32783;51.756;-2.556;2022-08-01T09:10:55;1.17;;;0.65;;
47025;SDS011;32783;51.756;-2.556;2022-08-01T09:13:20;1.02;;;0.73;;
47025;SDS011;32783;51.756;-2.556;2022-08-01T09:15:48;1.60;;;0.52;;
47025;SDS011;32783;51.756;-2.556;2022-08-01T09:21:11;3.05;;;0.68;;
47025;SDS011;32783;51.756;-2.556;2022-08-01T09:23:49;0.98;;;0.40;;
47025;SDS011;32783;51.756;-2.556;2022-08-01T09:26:17;1.10;;;0.50;;
47025;SDS011;32783;51.756;-2.556;2022-08-01T09:28:47;3.00;;;0.57;;
47025;SDS011;32783;51.756;-2.556;2022-08-01T09:31:14;1.83;;;0.68;;
47025;SDS011;32783;51.756;-2.556;2022-08-01T09:36:17;1.20;;;0.90;;
47025;SDS011;32783;51.756;-2.556;2022-08-01T09:38:44;1.75;;;0.50;;
47025;SDS011;32783;51.756;-2.556;2022-08-01T09:41:09;1.05;;;0.35;;
47025;SDS011;32783;51.756;-2.556;2022-08-01T09:43:36;2.67;;;0.70;;
47025;SDS011;32783;51.756;-2.556;2022-08-01T09:46:08;1.95;;;0.47;;
47025;SDS011;32783;51.756;-2.556;2022-08-01T09:48:36;1.05;;;0.50;;
47025;SDS011;32783;51.756;-2.556;2022-08-01T09:51:04;1.15;;;0.60;;
47025;SDS011;32783;51.756;-2.556;2022-08-01T09:53:47;1.27;;;0.60;;
47025;SDS011;32783;51.756;-2.556;2022-08-01T09:56:14;2.45;;;0.98;;
47025;SDS011;32783;51.756;-2.556;2022-08-01T10:01:48;2.78;;;0.80;;
47025;SDS011;32783;51.756;-2.556;2022-08-01T10:04:15;2.85;;;0.50;;
47025;SDS011;32783;51.756;-2.556;2022-08-01T10:06:46;1.88;;;0.82;;
47025;SDS011;32783;51.756;-2.556;2022-08-01T10:09:14;9.80;;;1.35;;
47025;SDS011;32783;51.756;-2.556;2022-08-01T10:11:41;1.02;;;0.60;;
47025;SDS011;32783;51.756;-2.556;2022-08-01T10:14:07;2.22;;;0.73;;
47025;SDS011;32783;51.756;-2.556;2022-08-01T10:16:33;2.40;;;0.75;;
47025;SDS011;32783;51.756;-2.556;2022-08-01T10:19:00;0.93;;;0.40;;
47025;SDS011;32783;51.756;-2.556;2022-08-01T10:21:27;1.35;;;0.60;;
47025;SDS011;32783;51.756;-2.556;2022-08-01T10:23:54;2.65;;;0.60;;
47025;SDS011;32783;51.756;-2.556;2022-08-01T10:26:21;5.90;;;0.93;;
47025;SDS011;32783;51.756;-2.556;2022-08-01T10:28:48;9.32;;;1.63;;
47025;SDS011;32783;51.756;-2.556;2022-08-01T10:31:13;8.60;;;1.95;;
47025;SDS011;32783;51.756;-2.556;2022-08-01T10:33:39;7.25;;;1.65;;
47025;SDS011;32783;51.756;-2.556;2022-08-01T10:36:06;4.80;;;1.38;;
47025;SDS011;32783;51.756;-2.556;2022-08-01T10:38:32;13.43;;;2.40;;
47025;SDS011;32783;51.756;-2.556;2022-08-01T10:40:57;6.30;;;1.27;;
47025;SDS011;32783;51.756;-2.556;2022-08-01T10:43:24;4.78;;;1.60;;
47025;SDS011;32783;51.756;-2.556;2022-08-01T10:45:50;3.22;;;0.95;;
47025;SDS011;32783;51.756;-2.556;2022-08-01T10:48:58;3.78;;;1.27;;
47025;SDS011;32783;51.756;-2.556;2022-08-01T10:51:11;3.33;;;0.93;;
47025;SDS011;32783;51.756;-2.556;2022-08-01T10:53:36;4.65;;;1.20;;
47025;SDS011;32783;51.756;-2.556;2022-08-01T10:56:11;7.85;;;1.52;;
47025;SDS011;32783;51.756;-2.556;2022-08-01T10:58:37;3.92;;;0.63;;
47025;SDS011;32783;51.756;-2.556;2022-08-01T11:03:40;9.25;;;1.25;;
47025;SDS011;32783;51.756;-2.556;2022-08-01T11:06:06;3.55;;;1.23;;
47025;SDS011;32783;51.756;-2.556;2022-08-01T11:08:32;2.20;;;0.70;;
47025;SDS011;32783;51.756;-2.556;2022-08-01T11:11:01;9.02;;;1.67;;
47025;SDS011;32783;51.756;-2.556;2022-08-01T11:16:34;4.10;;;1.08;;
47025;SDS011;32783;51.756;-2.556;2022-08-01T11:19:02;6.10;;;1.85;;
47025;SDS011;32783;51.756;-2.556;2022-08-01T11:27:20;5.25;;;2.83;;
47025;SDS011;32783;51.756;-2.556;2022-08-01T11:32:33;3.67;;;1.17;;
47025;SDS011;32783;51.756;-2.556;2022-08-01T11:35:03;3.30;;;1.20;;
47025;SDS011;32783;51.756;-2.556;2022-08-01T11:37:29;2.22;;;0.80;;
47025;SDS011;32783;51.756;-2.556;2022-08-01T11:45:49;3.58;;;1.00;;
47025;SDS011;32783;51.756;-2.556;2022-08-01T11:48:19;1.85;;;1.15;;
47025;SDS011;32783;51.756;-2.556;2022-08-01T11:50:45;5.03;;;1.20;;
47025;SDS011;32783;51.756;-2.556;2022-08-01T11:53:11;2.10;;;1.00;;
47025;SDS011;32783;51.756;-2.556;2022-08-01T11:55:43;2.35;;;0.80;;
47025;SDS011;32783;51.756;-2.556;2022-08-01T11:58:10;4.28;;;1.00;;
47025;SDS011;32783;51.756;-2.556;2022-08-01T12:00:36;4.35;;;1.02;;
47025;SDS011;32783;51.756;-2.556;2022-08-01T12:03:03;1.60;;;0.90;;
47025;SDS011;32783;51.756;-2.556;2022-08-01T12:05:30;3.00;;;1.00;;
47025;SDS011;32783;51.756;-2.556;2022-08-01T12:07:58;4.80;;;1.20;;
47025;SDS011;32783;51.756;-2.556;2022-08-01T12:10:26;3.78;;;1.17;;
47025;SDS011;32783;51.756;-2.556;2022-08-01T12:12:59;2.63;;;1.42;;
47025;SDS011;32783;51.756;-2.556;2022-08-01T12:15:29;1.10;;;0.82;;
47025;SDS011;32783;51.756;-2.556;2022-08-01T12:17:59;3.00;;;1.80;;
47025;SDS011;32783;51.756;-2.556;2022-08-01T12:20:27;3.25;;;1.20;;
47025;SDS011;32783;51.756;-2.556;2022-08-01T12:23:09;4.13;;;1.60;;
47025;SDS011;32783;51.756;-2.556;2022-08-01T12:25:37;6.05;;;1.10;;
47025;SDS011;32783;51.756;-2.556;2022-08-01T12:28:08;3.45;;;1.40;;
47025;SDS011;32783;51.756;-2.556;2022-08-01T12:30:35;3.53;;;1.17;;
47025;SDS011;32783;51.756;-2.556;2022-08-01T12:33:05;3.22;;;1.00;;
47025;SDS011;32783;51.756;-2.556;2022-08-01T12:35:34;1.52;;;1.00;;
47025;SDS011;32783;51.756;-2.556;2022-08-01T12:38:05;1.65;;;0.98;;
47025;SDS011;32783;51.756;-2.556;2022-08-01T12:40:35;2.25;;;0.88;;
47025;SDS011;32783;51.756;-2.556;2022-08-01T12:43:04;3.20;;;0.98;;
47025;SDS011;32783;51.756;-2.556;2022-08-01T12:45:40;2.53;;;1.08;;
47025;SDS011;32783;51.756;-2.556;2022-08-01T12:48:09;2.05;;;1.00;;
47025;SDS011;32783;51.756;-2.556;2022-08-01T12:50:37;2.20;;;0.90;;
47025;SDS011;32783;51.756;-2.556;2022-08-01T12:53:04;4.13;;;0.90;;
47025;SDS011;32783;51.756;-2.556;2022-08-01T12:55:30;1.75;;;0.70;;
47025;SDS011;32783;51.756;-2.556;2022-08-01T12:58:08;1.65;;;0.90;;
47025;SDS011;32783;51.756;-2.556;2022-08-01T13:00:36;2.58;;;0.98;;
47025;SDS011;32783;51.756;-2.556;2022-08-01T13:03:08;0.85;;;0.80;;
47025;SDS011;32783;51.756;-2.556;2022-08-01T13:05:41;1.98;;;1.00;;
47025;SDS011;32783;51.756;-2.556;2022-08-01T13:08:13;1.55;;;0.95;;
47025;SDS011;32783;51.756;-2.556;2022-08-01T13:10:45;1.88;;;1.13;;
47025;SDS011;32783;51.756;-2.556;2022-08-01T13:13:12;1.58;;;0.80;;
47025;SDS011;32783;51.756;-2.556;2022-08-01T13:15:39;2.03;;;0.73;;
47025;SDS011;32783;51.756;-2.556;2022-08-01T13:18:27;1.40;;;0.50;;
47025;SDS011;32783;51.756;-2.556;2022-08-01T13:23:36;3.40;;;0.82;;
47025;SDS011;32783;51.756;-2.556;2022-08-01T13:26:03;2.53;;;1.15;;
47025;SDS011;32783;51.756;-2.556;2022-08-01T13:28:28;3.03;;;0.88;;
47025;SDS011;32783;51.756;-2.556;2022-08-01T13:30:56;3.30;;;0.98;;
47025;SDS011;32783;51.756;-2.556;2022-08-01T13:33:23;1.35;;;1.00;;
47025;SDS011;32783;51.756;-2.556;2022-08-01T13:35:50;2.05;;;0.60;;
47025;SDS011;32783;51.756;-2.556;2022-08-01T13:38:17;0.93;;;0.68;;
47025;SDS011;32783;51.756;-2.556;2022-08-01T13:40:42;1.85;;;0.95;;
47025;SDS011;32783;51.756;-2.556;2022-08-01T13:43:08;1.00;;;0.68;;
47025;SDS011;32783;51.756;-2.556;2022-08-01T13:45:34;1.33;;;0.70;;
47025;SDS011;32783;51.756;-2.556;2022-08-01T13:47:59;1.23;;;0.88;;
47025;SDS011;32783;51.756;-2.556;2022-08-01T13:50:25;1.00;;;0.70;;
47025;SDS011;32783;51.756;-2.556;2022-08-01T13:52:50;1.83;;;0.82;;
47025;SDS011;32783;51.756;-2.556;2022-08-01T13:55:16;0.98;;;0.73;;
47025;SDS011;32783;51.756;-2.556;2022-08-01T13:57:41;0.90;;;0.70;;
47025;SDS011;32783;51.756;-2.556;2022-08-01T14:00:07;2.53;;;0.80;;
47025;SDS011;32783;51.756;-2.556;2022-08-01T14:02:34;0.88;;;0.82;;
47025;SDS011;32783;51.756;-2.556;2022-08-01T14:04:59;2.45;;;0.60;;
47025;SDS011;32783;51.756;-2.556;2022-08-01T14:07:26;1.48;;;0.80;;
47025;SDS011;32783;51.756;-2.556;2022-08-01T14:09:51;0.98;;;0.85;;
47025;SDS011;32783;51.756;-2.556;2022-08-01T14:12:17;1.40;;;0.70;;
47025;SDS011;32783;51.756;-2.556;2022-08-01T14:14:42;0.98;;;0.55;;
47025;SDS011;32783;51.756;-2.556;2022-08-01T14:17:08;1.40;;;0.70;;
47025;SDS011;32783;51.756;-2.556;2022-08-01T14:19:33;1.73;;;0.70;;
47025;SDS011;32783;51.756;-2.556;2022-08-01T14:21:59;0.90;;;0.70;;
47025;SDS011;32783;51.756;-2.556;2022-08-01T14:24:24;1.55;;;0.73;;
47025;SDS011;32783;51.756;-2.556;2022-08-01T14:26:51;1.92;;;0.73;;
47025;SDS011;32783;51.756;-2.556;2022-08-01T14:29:16;1.13;;;0.80;;
47025;SDS011;32783;51.756;-2.556;2022-08-01T14:31:42;1.13;;;0.80;;
47025;SDS011;32783;51.756;-2.556;2022-08-01T14:34:07;1.45;;;0.57;;
47025;SDS011;32783;51.756;-2.556;2022-08-01T14:36:33;1.52;;;0.68;;
47025;SDS011;32783;51.756;-2.556;2022-08-01T14:38:59;2.15;;;0.60;;
47025;SDS011;32783;51.756;-2.556;2022-08-01T14:41:24;0.77;;;0.77;;
47025;SDS011;32783;51.756;-2.556;2022-08-01T14:43:50;0.80;;;0.80;;
47025;SDS011;32783;51.756;-2.556;2022-08-01T14:46:15;1.98;;;0.60;;
47025;SDS011;32783;51.756;-2.556;2022-08-01T14:48:40;1.00;;;0.70;;
47025;SDS011;32783;51.756;-2.556;2022-08-01T14:51:06;0.90;;;0.70;;
47025;SDS011;32783;51.756;-2.556;2022-08-01T14:53:32;4.40;;;0.90;;
47025;SDS011;32783;51.756;-2.556;2022-08-01T14:55:58;0.88;;;0.60;;
47025;SDS011;32783;51.756;-2.556;2022-08-01T14:58:23;0.80;;;0.63;;
47025;SDS011;32783;51.756;-2.556;2022-08-01T15:00:49;1.05;;;0.88;;
47025;SDS011;32783;51.756;-2.556;2022-08-01T15:03:14;2.72;;;0.88;;
47025;SDS011;32783;51.756;-2.556;2022-08-01T15:05:40;1.05;;;0.60;;
47025;SDS011;32783;51.756;-2.556;2022-08-01T15:08:05;1.33;;;0.73;;
47025;SDS011;32783;51.756;-2.556;2022-08-01T15:10:31;1.35;;;0.65;;
47025;SDS011;32783;51.756;-2.556;2022-08-01T15:12:57;0.82;;;0.75;;
47025;SDS011;32783;51.756;-2.556;2022-08-01T15:15:24;2.78;;;0.90;;
47025;SDS011;32783;51.756;-2.556;2022-08-01T15:17:51;0.85;;;0.57;;
47025;SDS011;32783;51.756;-2.556;2022-08-01T15:20:17;1.00;;;0.70;;
47025;SDS011;32783;51.756;-2.556;2022-08-01T15:22:43;1.70;;;0.90;;
47025;SDS011;32783;51.756;-2.556;2022-08-01T15:25:09;0.82;;;0.60;;
47025;SDS011;32783;51.756;-2.556;2022-08-01T15:27:34;0.68;;;0.60;;